SBPB

Details ICAO SBPB
Name PREFEITO DOUTOR JOAO SILVA FILHO
Region Brazil
Timezone America/Fortaleza (UTC-3.0)
Plans Departing 16
Arriving 13
Stats Elevation 16 ft / 5 m (AMSL)
Location -2.893747° -41.731961°
Runways 1
Magnetic Variation 21.056° W
Sunrise 2017-12-15 08:34:55 UTC / 2017-12-15 05:34:55 Local
Sunset 2017-12-15 20:52:09 UTC / 2017-12-15 17:52:09 Local
Advertisement - Login to hide

Runways

ID Width Length Bearing (true) Bearing (mag) Surface Threshold Offset Overrun Length
09 148 ft / 45 m 6,902 ft / 2,104 m 73.53° 94.59° Asphalt 0 ft / 0 m 0 ft / 0 m
27 148 ft / 45 m 6,902 ft / 2,104 m 253.53° 274.59° Asphalt 0 ft / 0 m 0 ft / 0 m

Map

Weather


0- 5 10 15 20 25 30 35+ Temperature / ° C

Clouds and Precipitation
Forecast for 2017-12-16 00:00 UTC. Updated an hour ago

Ground ~20,000 ft ~40,000 ft Winds

METAR

SBPB 152000Z 07014KT 9999 SCT020 31/23 Q1009

TAF

Not found

Frequencies

Tower 126.60 MHz RDO
Warning: Do not use this data for real-world aviation or navigation. No guarantee of current accuracy is given.